Time,TemperatureF,DewpointF,PressureIn,WindDirection,WindDirectionDegrees,WindSpeedMPH,WindSpeedGustMPH,Humidity,HourlyPrecipIn,Conditions,Clouds,dailyrainin,SoftwareType,DateUTC
2013-02-11 00:01:00,41.6,37.0,30.09,South,186,0.0,3.0,83,0.00,,,0.00,weatherlink.com 1.10,2013-02-11 08:01:00,
2013-02-11 00:16:00,40.4,36.0,30.09,West,259,0.0,1.0,85,0.00,,,0.00,weatherlink.com 1.10,2013-02-11 08:16:00,
2013-02-11 00:31:00,39.7,36.0,30.09,NE,46,0.0,2.0,86,0.00,,,0.00,weatherlink.com 1.10,2013-02-11 08:31:00,
2013-02-11 00:46:00,40.7,36.0,30.09,ENE,60,0.0,0.0,83,0.00,,,0.00,weatherlink.com 1.10,2013-02-11 08:46:00,
2013-02-11 01:01:00,40.1,36.0,30.09,ENE,78,2.0,4.0,84,0.00,,,0.00,weatherlink.com 1.10,2013-02-11 09:01:00,
2013-02-11 01:16:00,50.9,31.0,30.09,SW,231,2.0,7.0,46,0.00,,,0.00,weatherlink.com 1.10,2013-02-11 09:16:00,
2013-02-11 01:31:00,42.2,35.0,30.09,SW,221,0.0,3.0,77,0.00,,,0.00,weatherlink.com 1.10,2013-02-11 09:31:00,
2013-02-11 01:46:00,40.3,35.0,30.09,SE,139,0.0,2.0,82,0.00,,,0.00,weatherlink.com 1.10,2013-02-11 09:46:00,
2013-02-11 02:01:00,38.7,35.0,30.09,SW,231,0.0,0.0,85,0.00,,,0.00,weatherlink.com 1.10,2013-02-11 10:01:00,
2013-02-11 02:16:00,38.0,35.0,30.10,North,11,0.0,2.0,88,0.00,,,0.00,weatherlink.com 1.10,2013-02-11 10:16:00,
2013-02-11 02:31:00,38.3,35.0,30.10,East,91,0.0,0.0,89,0.00,,,0.00,weatherlink.com 1.10,2013-02-11 10:31:00,
2013-02-11 02:47:00,38.1,35.0,30.10,North,349,2.0,2.0,88,0.00,,,0.00,weatherlink.com 1.10,2013-02-11 10:47:00,
2013-02-11 03:02:00,37.3,34.0,30.10,East,79,0.0,2.0,89,0.00,,,0.00,weatherlink.com 1.10,2013-02-11 11:02:00,
2013-02-11 03:17:00,37.5,35.0,30.10,SSE,165,0.0,1.0,89,0.00,,,0.00,weatherlink.com 1.10,2013-02-11 11:17:00,
2013-02-11 03:32:00,37.7,34.0,30.10,SW,235,0.0,0.0,87,0.00,,,0.00,weatherlink.com 1.10,2013-02-11 11:32:00,
2013-02-11 03:47:00,39.6,36.0,30.10,ESE,106,0.0,3.0,85,0.00,,,0.00,weatherlink.com 1.10,2013-02-11 11:47:00,
2013-02-11 04:02:00,39.4,34.0,30.10,East,93,0.0,0.0,81,0.00,,,0.00,weatherlink.com 1.10,2013-02-11 12:02:00,
2013-02-11 04:17:00,39.6,33.0,30.11,WNW,287,0.0,2.0,78,0.00,,,0.00,weatherlink.com 1.10,2013-02-11 12:17:00,
2013-02-11 04:32:00,38.7,33.0,30.11,ENE,67,0.0,1.0,79,0.00,,,0.00,weatherlink.com 1.10,2013-02-11 12:32:00,
2013-02-11 04:47:00,38.2,33.0,30.11,South,170,0.0,0.0,80,0.00,,,0.00,weatherlink.com 1.10,2013-02-11 12:47:00,
2013-02-11 05:02:00,36.6,32.0,30.12,NE,46,2.0,2.0,82,0.00,,,0.00,weatherlink.com 1.10,2013-02-11 13:02:00,
2013-02-11 05:17:00,37.9,32.0,30.12,NNE,31,1.0,4.0,80,0.00,,,0.00,weatherlink.com 1.10,2013-02-11 13:17:00,
2013-02-11 05:32:00,38.2,32.0,30.12,ESE,119,0.0,3.0,78,0.00,,,0.00,weatherlink.com 1.10,2013-02-11 13:32:00,
2013-02-11 05:47:00,38.6,32.0,30.12,SE,134,0.0,5.0,76,0.00,,,0.00,weatherlink.com 1.10,2013-02-11 13:47:00,
2013-02-11 06:02:00,39.4,31.0,30.13,South,169,2.0,8.0,73,0.00,,,0.00,weatherlink.com 1.10,2013-02-11 14:02:00,
2013-02-11 06:17:00,40.7,31.0,30.13,SSE,149,1.0,3.0,69,0.00,,,0.00,weatherlink.com 1.10,2013-02-11 14:17:00,
2013-02-11 06:32:00,40.5,31.0,30.13,NNE,27,0.0,4.0,69,0.00,,,0.00,weatherlink.com 1.10,2013-02-11 14:32:00,
2013-02-11 06:47:00,41.6,30.0,30.13,SE,131,0.0,0.0,64,0.00,,,0.00,weatherlink.com 1.10,2013-02-11 14:47:00,
2013-02-11 07:02:00,44.7,30.0,30.14,NW,321,0.0,0.0,57,0.00,,,0.00,weatherlink.com 1.10,2013-02-11 15:02:00,
2013-02-11 07:17:00,45.9,30.0,30.14,SE,124,1.0,3.0,54,0.00,,,0.00,weatherlink.com 1.10,2013-02-11 15:17:00,
2013-02-11 07:33:00,49.7,29.0,30.14,East,100,2.0,5.0,45,0.00,,,0.00,weatherlink.com 1.10,2013-02-11 15:33:00,
2013-02-11 07:47:00,45.9,30.0,30.15,NNE,32,0.0,3.0,55,0.00,,,0.00,weatherlink.com 1.10,2013-02-11 15:47:00,
2013-02-11 08:02:00,45.3,32.0,30.16,SW,214,0.0,2.0,61,0.00,,,0.00,weatherlink.com 1.10,2013-02-11 16:02:00,
2013-02-11 08:17:00,47.8,33.0,30.16,NE,41,0.0,0.0,56,0.00,,,0.00,weatherlink.com 1.10,2013-02-11 16:17:00,
2013-02-11 08:32:00,48.9,36.0,30.17,West,267,0.0,2.0,62,0.00,,,0.00,weatherlink.com 1.10,2013-02-11 16:32:00,
2013-02-11 08:47:00,51.4,36.0,30.17,WSW,241,0.0,0.0,55,0.00,,,0.00,weatherlink.com 1.10,2013-02-11 16:47:00,
2013-02-11 09:17:00,53.0,37.0,30.18,SW,231,2.0,4.0,54,0.00,,,0.00,weatherlink.com 1.10,2013-02-11 17:17:00,
2013-02-11 09:33:00,54.9,36.0,30.18,WNW,298,1.0,4.0,50,0.00,,,0.00,weatherlink.com 1.10,2013-02-11 17:33:00,
2013-02-11 09:48:00,55.5,36.0,30.19,SW,217,0.0,1.0,49,0.00,,,0.00,weatherlink.com 1.10,2013-02-11 17:48:00,
2013-02-11 10:03:00,56.0,38.0,30.19,NW,309,0.0,4.0,51,0.00,,,0.00,weatherlink.com 1.10,2013-02-11 18:03:00,
2013-02-11 10:18:00,57.4,39.0,30.19,NW,315,0.0,2.0,50,0.00,,,0.00,weatherlink.com 1.10,2013-02-11 18:18:00,
2013-02-11 10:33:00,60.1,38.0,30.19,SW,221,0.0,2.0,44,0.00,,,0.00,weatherlink.com 1.10,2013-02-11 18:33:00,
2013-02-11 10:48:00,61.0,38.0,30.19,SW,217,1.0,3.0,43,0.00,,,0.00,weatherlink.com 1.10,2013-02-11 18:48:00,
2013-02-11 11:03:00,62.2,37.0,30.19,SE,134,0.0,3.0,40,0.00,,,0.00,weatherlink.com 1.10,2013-02-11 19:03:00,
2013-02-11 11:18:00,62.8,37.0,30.18,SW,214,1.0,6.0,39,0.00,,,0.00,weatherlink.com 1.10,2013-02-11 19:18:00,
2013-02-11 11:33:00,64.3,37.0,30.18,WNW,283,1.0,4.0,36,0.00,,,0.00,weatherlink.com 1.10,2013-02-11 19:33:00,
2013-02-11 11:48:00,65.1,34.0,30.17,SW,231,1.0,2.0,32,0.00,,,0.00,weatherlink.com 1.10,2013-02-11 19:48:00,
2013-02-11 12:03:00,65.6,34.0,30.16,WSW,255,0.0,4.0,31,0.00,,,0.00,weatherlink.com 1.10,2013-02-11 20:03:00,
2013-02-11 12:18:00,66.6,36.0,30.16,South,172,2.0,5.0,32,0.00,,,0.00,weatherlink.com 1.10,2013-02-11 20:18:00,
2013-02-11 12:33:00,66.9,35.0,30.15,West,271,2.0,7.0,31,0.00,,,0.00,weatherlink.com 1.10,2013-02-11 20:33:00,
2013-02-11 12:48:00,66.7,35.0,30.15,SW,222,7.0,7.0,31,0.00,,,0.00,weatherlink.com 1.10,2013-02-11 20:48:00,
2013-02-11 13:03:00,67.5,34.0,30.14,West,278,2.0,6.0,29,0.00,,,0.00,weatherlink.com 1.10,2013-02-11 21:03:00,
2013-02-11 13:18:00,67.7,35.0,30.14,NW,318,3.0,9.0,30,0.00,,,0.00,weatherlink.com 1.10,2013-02-11 21:18:00,
2013-02-11 13:33:00,68.1,36.0,30.13,WNW,301,3.0,8.0,31,0.00,,,0.00,weatherlink.com 1.10,2013-02-11 21:33:00,
2013-02-11 13:48:00,67.8,37.0,30.13,SSE,150,2.0,9.0,32,0.00,,,0.00,weatherlink.com 1.10,2013-02-11 21:48:00,
2013-02-11 14:04:00,68.2,37.0,30.13,SW,225,2.0,6.0,32,0.00,,,0.00,weatherlink.com 1.10,2013-02-11 22:04:00,
2013-02-11 14:19:00,67.8,38.0,30.13,SSE,147,1.0,6.0,33,0.00,,,0.00,weatherlink.com 1.10,2013-02-11 22:19:00,
2013-02-11 14:34:00,68.2,40.0,30.13,SW,214,8.0,8.0,36,0.00,,,0.00,weatherlink.com 1.10,2013-02-11 22:34:00,
2013-02-11 14:49:00,66.4,38.0,30.13,WSW,246,2.0,13.0,35,0.00,,,0.00,weatherlink.com 1.10,2013-02-11 22:49:00,
2013-02-11 15:03:00,65.7,39.0,30.13,SW,236,3.0,11.0,37,0.00,,,0.00,weatherlink.com 1.10,2013-02-11 23:03:00,
2013-02-11 15:18:00,64.6,41.0,30.13,South,191,10.0,13.0,42,0.00,,,0.00,weatherlink.com 1.10,2013-02-11 23:18:00,
2013-02-11 15:34:00,63.6,42.0,30.14,South,190,6.0,12.0,45,0.00,,,0.00,weatherlink.com 1.10,2013-02-11 23:34:00,
2013-02-11 15:48:00,62.9,42.0,30.14,South,190,7.0,11.0,46,0.00,,,0.00,weatherlink.com 1.10,2013-02-11 23:48:00,
2013-02-11 16:03:00,62.2,41.0,30.14,WSW,240,5.0,12.0,46,0.00,,,0.00,weatherlink.com 1.10,2013-02-12 00:03:00,
2013-02-11 16:18:00,61.8,41.0,30.15,South,175,8.0,11.0,47,0.00,,,0.00,weatherlink.com 1.10,2013-02-12 00:18:00,
2013-02-11 16:33:00,60.6,41.0,30.15,SSW,200,7.0,11.0,48,0.00,,,0.00,weatherlink.com 1.10,2013-02-12 00:33:00,
2013-02-11 16:48:00,59.9,41.0,30.15,South,169,4.0,10.0,50,0.00,,,0.00,weatherlink.com 1.10,2013-02-12 00:48:00,
2013-02-11 17:03:00,59.0,41.0,30.15,SW,229,5.0,11.0,51,0.00,,,0.00,weatherlink.com 1.10,2013-02-12 01:03:00,
2013-02-11 17:18:00,58.0,40.0,30.15,SW,226,5.0,10.0,52,0.00,,,0.00,weatherlink.com 1.10,2013-02-12 01:18:00,
2013-02-11 17:34:00,57.2,41.0,30.15,SW,225,7.0,7.0,55,0.00,,,0.00,weatherlink.com 1.10,2013-02-12 01:34:00,
2013-02-11 17:48:00,55.9,40.0,30.16,SSW,208,1.0,3.0,55,0.00,,,0.00,weatherlink.com 1.10,2013-02-12 01:48:00,
2013-02-11 18:04:00,54.9,40.0,30.16,East,84,0.0,2.0,57,0.00,,,0.00,weatherlink.com 1.10,2013-02-12 02:04:00,
2013-02-11 18:19:00,52.9,40.0,30.16,ENE,73,0.0,0.0,61,0.00,,,0.00,weatherlink.com 1.10,2013-02-12 02:19:00,
2013-02-11 18:33:00,51.8,39.0,30.17,ENE,74,0.0,0.0,63,0.00,,,0.00,weatherlink.com 1.10,2013-02-12 02:33:00,
2013-02-11 18:49:00,50.3,39.0,30.17,ENE,73,0.0,0.0,66,0.00,,,0.00,weatherlink.com 1.10,2013-02-12 02:49:00,
2013-02-11 19:03:00,48.7,39.0,30.17,ESE,117,0.0,0.0,69,0.00,,,0.00,weatherlink.com 1.10,2013-02-12 03:03:00,
2013-02-11 19:19:00,47.8,38.0,30.18,WNW,294,0.0,0.0,70,0.00,,,0.00,weatherlink.com 1.10,2013-02-12 03:19:00,
2013-02-11 19:34:00,47.5,40.0,30.18,SSW,194,1.0,4.0,76,0.00,,,0.00,weatherlink.com 1.10,2013-02-12 03:34:00,
2013-02-11 19:49:00,47.0,39.0,30.18,ESE,120,0.0,1.0,74,0.00,,,0.00,weatherlink.com 1.10,2013-02-12 03:49:00,
2013-02-11 20:04:00,46.5,39.0,30.18,NE,49,0.0,2.0,76,0.00,,,0.00,weatherlink.com 1.10,2013-02-12 04:04:00,
2013-02-11 20:19:00,46.0,39.0,30.18,NE,49,0.0,0.0,76,0.00,,,0.00,weatherlink.com 1.10,2013-02-12 04:19:00,
2013-02-11 20:34:00,44.7,38.0,30.19,NE,49,0.0,0.0,78,0.00,,,0.00,weatherlink.com 1.10,2013-02-12 04:34:00,
2013-02-11 20:49:00,43.9,38.0,30.19,NE,50,0.0,0.0,80,0.00,,,0.00,weatherlink.com 1.10,2013-02-12 04:49:00,
2013-02-11 21:04:00,43.4,38.0,30.20,East,89,0.0,0.0,82,0.00,,,0.00,weatherlink.com 1.10,2013-02-12 05:04:00,
2013-02-11 21:19:00,43.6,39.0,30.20,SE,133,0.0,0.0,83,0.00,,,0.00,weatherlink.com 1.10,2013-02-12 05:19:00,
2013-02-11 21:34:00,43.2,38.0,30.20,SE,131,0.0,0.0,83,0.00,,,0.00,weatherlink.com 1.10,2013-02-12 05:34:00,
2013-02-11 21:49:00,42.4,38.0,30.20,SSE,163,0.0,0.0,85,0.00,,,0.00,weatherlink.com 1.10,2013-02-12 05:49:00,
2013-02-11 22:04:00,42.4,38.0,30.21,ESE,114,0.0,0.0,85,0.00,,,0.00,weatherlink.com 1.10,2013-02-12 06:04:00,
2013-02-11 22:19:00,42.6,38.0,30.21,ESE,114,0.0,0.0,85,0.00,,,0.00,weatherlink.com 1.10,2013-02-12 06:19:00,
2013-02-11 22:34:00,41.6,38.0,30.21,ESE,115,0.0,0.0,86,0.00,,,0.00,weatherlink.com 1.10,2013-02-12 06:34:00,
2013-02-11 22:49:00,40.7,37.0,30.21,ESE,117,0.0,0.0,87,0.00,,,0.00,weatherlink.com 1.10,2013-02-12 06:49:00,
2013-02-11 23:04:00,40.1,37.0,30.21,ESE,115,0.0,0.0,89,0.00,,,0.00,weatherlink.com 1.10,2013-02-12 07:04:00,
2013-02-11 23:19:00,40.2,37.0,30.22,ESE,115,0.0,0.0,89,0.00,,,0.00,weatherlink.com 1.10,2013-02-12 07:19:00,
2013-02-11 23:34:00,40.2,38.0,30.22,ESE,115,0.0,0.0,90,0.00,,,0.00,weatherlink.com 1.10,2013-02-12 07:34:00,
2013-02-11 23:49:00,39.8,37.0,30.23,SSW,207,0.0,0.0,90,0.00,,,0.00,weatherlink.com 1.10,2013-02-12 07:49:00,